Time;durP1;ratioP1;P1;durP2;ratioP2;P2;SDS_P1;SDS_P2;PMS_P1;PMS_P2;Temp;Humidity;BMP_temperature;BMP_pressure;BME280_temperature;BME280_humidity;BME280_pressure;Samples;Min_cycle;Max_cycle;Signal;HPM_P1;HPM_P2
2023/11/19 00:01:32;;;;;;;2.17;1.77;;;;;;;7.80;100.00;98100.66;5032674;28;20229;-79
2023/11/19 00:03:59;;;;;;;3.17;2.00;;;;;;;7.80;100.00;98096.25;5033248;28;20216;-78
2023/11/19 00:06:25;;;;;;;2.53;2.10;;;;;;;7.83;100.00;98093.41;5033360;28;20237;-79
2023/11/19 00:08:53;;;;;;;2.67;2.07;;;;;;;7.85;100.00;98082.81;5033030;28;20223;-79
2023/11/19 00:11:20;;;;;;;2.33;2.10;;;;;;;7.84;100.00;98073.22;5033148;28;20243;-79
2023/11/19 00:13:46;;;;;;;2.80;1.97;;;;;;;7.88;100.00;98066.84;5033257;28;20209;-79
2023/11/19 00:16:12;;;;;;;2.43;1.90;;;;;;;7.86;100.00;98053.78;5033310;28;20729;-79
2023/11/19 00:18:39;;;;;;;2.53;1.83;;;;;;;7.88;100.00;98053.66;5033117;28;20215;-79
2023/11/19 00:21:07;;;;;;;2.53;2.03;;;;;;;7.89;100.00;98047.50;5033748;28;20237;-79
2023/11/19 00:23:34;;;;;;;3.23;1.90;;;;;;;7.91;100.00;98049.06;5033649;28;20301;-79
2023/11/19 00:26:02;;;;;;;2.07;1.80;;;;;;;7.94;100.00;98033.13;5033328;28;20257;-79
2023/11/19 00:28:28;;;;;;;2.47;1.87;;;;;;;7.98;100.00;98039.03;5032712;28;20213;-79
2023/11/19 00:30:55;;;;;;;2.43;1.60;;;;;;;8.04;100.00;98043.94;5032604;28;20301;-79
2023/11/19 00:33:21;;;;;;;1.63;1.53;;;;;;;8.06;100.00;98039.41;5033245;28;20586;-79
2023/11/19 00:35:48;;;;;;;2.40;1.73;;;;;;;8.09;100.00;98033.97;5035400;28;20209;-79
2023/11/19 00:38:14;;;;;;;1.77;1.60;;;;;;;8.16;100.00;98040.56;5037281;28;20245;-79
2023/11/19 00:40:41;;;;;;;2.87;1.80;;;;;;;8.15;100.00;98031.81;5036796;28;20205;-79
2023/11/19 00:43:09;;;;;;;2.33;1.70;;;;;;;8.18;100.00;98033.41;5036697;28;20680;-79
2023/11/19 00:45:35;;;;;;;3.47;2.00;;;;;;;8.17;100.00;98032.56;5036716;28;20300;-79
2023/11/19 00:48:02;;;;;;;2.17;1.80;;;;;;;8.19;100.00;98035.97;5036825;28;20594;-79
2023/11/19 00:50:31;;;;;;;3.10;2.00;;;;;;;8.21;100.00;98035.91;5036415;28;20312;-79
2023/11/19 00:52:57;;;;;;;2.93;1.80;;;;;;;8.23;100.00;98031.38;5036261;28;20649;-79
2023/11/19 00:55:23;;;;;;;2.50;2.00;;;;;;;8.23;100.00;98015.56;5036150;28;20212;-79
2023/11/19 00:57:50;;;;;;;2.30;1.93;;;;;;;8.24;100.00;98018.13;5036157;28;20209;-79
2023/11/19 01:00:18;;;;;;;2.67;2.00;;;;;;;8.27;100.00;98014.47;5035592;28;20209;-79
2023/11/19 01:02:46;;;;;;;2.90;2.03;;;;;;;8.28;100.00;98024.91;5036623;28;20229;-79
2023/11/19 01:05:14;;;;;;;2.10;2.00;;;;;;;8.27;100.00;98020.56;5036356;28;20271;-79
2023/11/19 01:07:41;;;;;;;2.90;2.00;;;;;;;8.30;100.00;98017.75;5035958;28;20241;-79
2023/11/19 01:10:08;;;;;;;2.07;1.87;;;;;;;8.29;100.00;98015.19;5036539;28;20211;-79
2023/11/19 01:12:35;;;;;;;2.30;2.00;;;;;;;8.30;100.00;98023.00;5035734;28;20291;-79
2023/11/19 01:15:02;;;;;;;3.37;2.30;;;;;;;8.31;100.00;98013.31;5035596;28;20215;-78
2023/11/19 01:17:31;;;;;;;4.13;2.40;;;;;;;8.27;100.00;98012.66;5034860;28;20680;-79
2023/11/19 01:19:57;;;;;;;3.53;2.67;;;;;;;8.23;100.00;98011.16;5034393;28;20282;-77
2023/11/19 01:22:24;;;;;;;2.90;2.40;;;;;;;8.22;100.00;98009.47;5034261;28;20235;-79
2023/11/19 01:24:52;;;;;;;4.40;2.57;;;;;;;8.21;100.00;98006.94;5034119;28;20213;-77
2023/11/19 01:27:18;;;;;;;2.60;2.40;;;;;;;8.23;100.00;98005.03;5034429;28;20233;-77
2023/11/19 01:29:44;;;;;;;3.00;2.50;;;;;;;8.26;100.00;97996.97;5034660;28;20324;-77
2023/11/19 01:32:12;;;;;;;3.20;2.30;;;;;;;8.30;100.00;98004.56;5033810;28;20231;-77
2023/11/19 01:34:41;;;;;;;3.03;2.20;;;;;;;8.33;100.00;97995.66;5034207;28;20329;-78
2023/11/19 01:37:09;;;;;;;2.47;2.20;;;;;;;8.37;100.00;97997.97;5036042;28;20208;-78
2023/11/19 01:39:35;;;;;;;2.87;2.10;;;;;;;8.43;100.00;97996.75;5035697;28;20214;-78
2023/11/19 01:42:02;;;;;;;2.10;1.90;;;;;;;8.45;100.00;97989.63;5035363;28;20229;-78
2023/11/19 01:44:28;;;;;;;2.73;2.00;;;;;;;8.46;100.00;97991.31;5035365;28;20213;-78
2023/11/19 01:46:55;;;;;;;2.67;2.37;;;;;;;8.46;100.00;97988.66;5035121;28;20585;-78
2023/11/19 01:49:22;;;;;;;2.47;2.23;;;;;;;8.45;100.00;97987.81;5036347;28;20216;-78
2023/11/19 01:51:50;;;;;;;2.50;1.90;;;;;;;8.48;100.00;97986.78;5035286;28;20233;-78
2023/11/19 01:54:17;;;;;;;3.13;2.10;;;;;;;8.52;100.00;97989.09;5035634;28;20211;-78
2023/11/19 01:56:44;;;;;;;2.33;1.90;;;;;;;8.54;100.00;97979.34;5035649;28;20213;-78
2023/11/19 01:59:13;;;;;;;1.97;1.70;;;;;;;8.60;100.00;97983.38;5035740;28;20214;-78
2023/11/19 02:01:40;;;;;;;1.63;1.00;;;;;;;8.71;100.00;97980.91;5036218;28;20601;-78
2023/11/19 02:04:08;;;;;;;0.87;0.67;;;;;;;8.83;100.00;97980.09;5035953;28;20410;-78
2023/11/19 02:06:37;;;;;;;0.43;0.43;;;;;;;8.91;100.00;97988.34;5035771;28;20242;-78
2023/11/19 02:09:07;;;;;;;0.63;0.60;;;;;;;9.00;100.00;97974.59;5035691;28;20223;-78
2023/11/19 02:11:34;;;;;;;1.27;0.60;;;;;;;9.04;100.00;97973.44;5035824;28;20307;-78
2023/11/19 02:14:02;;;;;;;1.70;0.73;;;;;;;9.09;100.00;97968.69;5035573;28;20328;-78
2023/11/19 02:16:29;;;;;;;0.47;0.47;;;;;;;9.09;100.00;97966.94;5035435;28;20291;-78
2023/11/19 02:18:56;;;;;;;0.57;0.50;;;;;;;9.12;100.00;97960.59;5035587;28;20211;-78
2023/11/19 02:21:22;;;;;;;0.40;0.40;;;;;;;9.12;100.00;97960.59;5036497;28;20602;-78
2023/11/19 02:23:49;;;;;;;0.40;0.40;;;;;;;9.15;100.00;97950.69;5035938;28;20380;-78
2023/11/19 02:26:22;;;;;;;0.67;0.60;;;;;;;9.14;100.00;97948.16;5035760;28;20232;-79
2023/11/19 02:28:50;;;;;;;0.60;0.60;;;;;;;9.12;100.00;97945.63;5035832;28;20213;-78
2023/11/19 02:31:18;;;;;;;1.40;1.10;;;;;;;9.10;100.00;97954.56;5034876;28;20249;-78
2023/11/19 02:33:45;;;;;;;2.20;1.30;;;;;;;9.05;100.00;97949.59;5035053;28;20208;-78
2023/11/19 02:36:11;;;;;;;2.53;1.70;;;;;;;9.00;100.00;97951.69;5034687;28;20220;-78
2023/11/19 02:38:38;;;;;;;2.63;1.67;;;;;;;8.98;100.00;97958.00;5035042;28;20215;-78
2023/11/19 02:41:06;;;;;;;2.10;1.67;;;;;;;8.97;100.00;97953.69;5034947;28;20246;-78
2023/11/19 02:43:33;;;;;;;2.67;1.90;;;;;;;8.97;100.00;97964.22;5036192;28;20270;-78
2023/11/19 02:46:01;;;;;;;2.40;1.93;;;;;;;8.95;100.00;97958.22;5034946;28;20241;-78
2023/11/19 02:48:27;;;;;;;2.70;1.93;;;;;;;8.93;100.00;97949.59;5035811;28;20215;-78
2023/11/19 02:50:54;;;;;;;3.43;1.83;;;;;;;8.92;100.00;97954.00;5034988;28;20217;-78
2023/11/19 02:53:22;;;;;;;4.00;2.20;;;;;;;8.93;100.00;97955.69;5032106;28;20683;-77
2023/11/19 02:55:49;;;;;;;2.80;2.00;;;;;;;8.93;100.00;97958.31;5032492;28;20214;-79
2023/11/19 02:58:23;;;;;;;2.63;2.20;;;;;;;8.94;100.00;97951.28;5033030;28;20204;-77
2023/11/19 03:00:56;;;;;;;2.80;1.63;;;;;;;8.95;100.00;97950.31;5032865;28;20224;-78
2023/11/19 03:03:30;;;;;;;2.40;1.93;;;;;;;8.94;100.00;97962.63;5032820;28;20208;-78
2023/11/19 03:05:57;;;;;;;2.07;1.77;;;;;;;8.95;100.00;97958.22;5033312;28;20244;-80
2023/11/19 03:08:23;;;;;;;2.77;1.73;;;;;;;8.95;100.00;97960.88;5033166;28;20215;-78
2023/11/19 03:10:50;;;;;;;1.93;1.70;;;;;;;8.96;100.00;97960.78;5033742;28;20569;-78
2023/11/19 03:13:18;;;;;;;2.57;2.07;;;;;;;8.97;100.00;97956.31;5033288;28;20212;-78
2023/11/19 03:15:44;;;;;;;2.23;1.87;;;;;;;8.99;100.00;97962.38;5033373;28;20542;-78
2023/11/19 03:18:11;;;;;;;2.63;2.10;;;;;;;8.98;100.00;97958.00;5033610;28;20210;-78
2023/11/19 03:20:39;;;;;;;2.67;1.93;;;;;;;8.97;100.00;97958.97;5032993;28;20237;-78
2023/11/19 03:23:05;;;;;;;2.73;2.20;;;;;;;9.02;100.00;97965.66;5033569;28;20219;-78
2023/11/19 03:25:34;;;;;;;2.70;2.27;;;;;;;8.99;100.00;97954.47;5034187;28;20217;-78
2023/11/19 03:28:01;;;;;;;3.20;2.40;;;;;;;9.00;100.00;97964.88;5034060;28;20235;-78
2023/11/19 03:30:28;;;;;;;3.10;2.57;;;;;;;8.99;100.00;97949.19;5034176;28;20213;-78
2023/11/19 03:32:54;;;;;;;2.57;2.30;;;;;;;9.01;100.00;97947.28;5033250;28;20750;-80
2023/11/19 03:35:21;;;;;;;2.70;2.30;;;;;;;9.00;100.00;97940.31;5033295;28;20210;-78
2023/11/19 03:37:50;;;;;;;3.70;2.80;;;;;;;8.99;100.00;97936.00;5034727;28;20221;-80
2023/11/19 03:40:16;;;;;;;3.63;2.57;;;;;;;8.99;100.00;97936.00;5035023;28;20587;-79
2023/11/19 03:42:44;;;;;;;4.27;3.10;;;;;;;8.98;100.00;97932.50;5035084;28;20242;-79
2023/11/19 03:45:11;;;;;;;3.97;3.13;;;;;;;8.98;100.00;97932.50;5035599;28;20221;-79
2023/11/19 03:47:37;;;;;;;4.10;3.27;;;;;;;8.98;100.00;97935.16;5035452;28;20241;-79
2023/11/19 03:50:05;;;;;;;5.00;3.40;;;;;;;8.98;100.00;97929.00;5035211;28;20204;-79
2023/11/19 03:52:34;;;;;;;3.63;3.20;;;;;;;8.98;100.00;97931.66;5034670;28;20241;-79
2023/11/19 03:55:02;;;;;;;3.87;3.00;;;;;;;9.00;100.00;97919.25;5035020;28;20215;-79
2023/11/19 03:57:29;;;;;;;4.60;3.10;;;;;;;9.00;100.00;97913.97;5035048;28;20568;-79
2023/11/19 03:59:56;;;;;;;5.17;3.63;;;;;;;9.06;100.00;97908.28;5034966;28;20210;-79
2023/11/19 04:02:23;;;;;;;5.53;3.17;;;;;;;9.07;100.00;97894.97;5034464;28;20279;-79
2023/11/19 04:04:50;;;;;;;4.30;3.20;;;;;;;9.11;100.00;97895.66;5034386;28;20220;-79
2023/11/19 04:07:18;;;;;;;3.63;2.90;;;;;;;9.08;100.00;97896.69;5034722;28;20721;-79
2023/11/19 04:09:46;;;;;;;4.30;3.03;;;;;;;9.10;100.00;97905.34;5034666;28;20218;-80
2023/11/19 04:12:14;;;;;;;3.57;2.70;;;;;;;9.10;100.00;97907.97;5038152;28;20230;-79
2023/11/19 04:14:41;;;;;;;4.30;2.83;;;;;;;9.12;100.00;97921.06;5037442;28;20243;-79
2023/11/19 04:17:07;;;;;;;3.30;2.57;;;;;;;9.16;100.00;97909.34;5037572;28;20532;-79
2023/11/19 04:19:34;;;;;;;2.80;2.20;;;;;;;9.17;100.00;97911.06;5039058;28;20222;-78
2023/11/19 04:22:00;;;;;;;2.87;2.17;;;;;;;9.17;100.00;97911.06;5040053;28;20247;-77
2023/11/19 04:24:27;;;;;;;2.47;2.10;;;;;;;9.21;100.00;97917.78;5038435;28;20225;-77
2023/11/19 04:26:53;;;;;;;2.40;1.93;;;;;;;9.21;100.00;97909.88;5039988;28;20230;-78
2023/11/19 04:29:21;;;;;;;2.40;2.10;;;;;;;9.20;100.00;97910.84;5037751;28;20296;-78
2023/11/19 04:31:48;;;;;;;3.57;2.63;;;;;;;9.24;100.00;97912.34;5036422;28;20229;-78
2023/11/19 04:34:14;;;;;;;2.80;2.30;;;;;;;9.29;100.00;97915.47;5036368;28;20215;-77
2023/11/19 04:36:41;;;;;;;3.33;2.30;;;;;;;9.29;100.00;97899.66;5036647;28;20215;-78
2023/11/19 04:39:11;;;;;;;2.43;2.00;;;;;;;9.31;100.00;97897.78;5036702;28;20226;-78
2023/11/19 04:41:46;;;;;;;2.87;2.17;;;;;;;9.32;100.00;97923.19;5037309;28;20246;-78
2023/11/19 04:44:13;;;;;;;2.97;2.20;;;;;;;9.34;100.00;97921.28;5036968;28;20309;-78
2023/11/19 04:46:40;;;;;;;2.63;2.30;;;;;;;9.36;100.00;97916.78;5037373;28;20235;-78
2023/11/19 04:49:07;;;;;;;2.03;1.83;;;;;;;9.40;100.00;97920.88;5037403;28;20220;-78
2023/11/19 04:51:39;;;;;;;2.77;2.00;;;;;;;9.43;100.00;97918.03;5036919;28;20238;-78
2023/11/19 04:54:06;;;;;;;2.50;1.97;;;;;;;9.46;100.00;97915.19;5037130;28;20588;-78
2023/11/19 04:56:33;;;;;;;3.10;2.00;;;;;;;9.47;100.00;97919.50;5037752;28;20648;-78
2023/11/19 04:58:59;;;;;;;2.60;1.70;;;;;;;9.51;100.00;97921.84;5037778;28;20212;-78
2023/11/19 05:01:26;;;;;;;2.90;1.80;;;;;;;9.54;100.00;97915.53;5036805;28;20245;-78
2023/11/19 05:03:53;;;;;;;3.23;1.60;;;;;;;9.58;100.00;97911.72;5036478;28;20222;-78
2023/11/19 05:06:20;;;;;;;1.60;1.30;;;;;;;9.59;100.00;97908.97;5036984;28;20279;-78
2023/11/19 05:08:47;;;;;;;2.70;1.40;;;;;;;9.61;100.00;97900.97;5036972;28;20206;-78
2023/11/19 05:11:17;;;;;;;1.20;1.10;;;;;;;9.64;100.00;97906.00;5035729;28;20741;-77
2023/11/19 05:13:45;;;;;;;1.20;1.10;;;;;;;9.67;100.00;97913.72;5036055;28;20223;-78
2023/11/19 05:16:13;;;;;;;1.20;1.10;;;;;;;9.68;100.00;97907.50;5035883;28;20286;-78
2023/11/19 05:18:40;;;;;;;1.33;1.20;;;;;;;9.71;100.00;97912.56;5036152;28;20622;-78
2023/11/19 05:21:08;;;;;;;1.63;1.30;;;;;;;9.72;100.00;97909.81;5034801;28;20232;-78
2023/11/19 05:23:35;;;;;;;1.30;1.20;;;;;;;9.72;100.00;97909.00;5035421;28;20205;-78
2023/11/19 05:26:03;;;;;;;1.30;1.20;;;;;;;9.73;100.00;97916.78;5035691;28;20214;-78
2023/11/19 05:28:29;;;;;;;0.97;0.83;;;;;;;9.74;100.00;97917.63;5034782;28;20237;-78
2023/11/19 05:30:56;;;;;;;1.80;0.93;;;;;;;9.74;100.00;97913.19;5035092;28;20237;-78
2023/11/19 05:33:22;;;;;;;1.07;0.87;;;;;;;9.77;100.00;97917.41;5035088;28;20208;-78
2023/11/19 05:35:49;;;;;;;1.43;1.07;;;;;;;9.80;100.00;97917.22;5035395;28;20216;-78
2023/11/19 05:38:17;;;;;;;0.93;0.70;;;;;;;9.86;100.00;97916.78;5035433;28;20208;-77
2023/11/19 05:40:43;;;;;;;1.50;0.70;;;;;;;9.90;100.00;97911.16;5035047;28;20211;-78
2023/11/19 05:43:10;;;;;;;0.67;0.50;;;;;;;9.94;100.00;97910.03;5034659;28;20229;-78
2023/11/19 05:45:36;;;;;;;0.40;0.40;;;;;;;10.03;100.00;97890.06;5035013;28;20205;-78
2023/11/19 05:48:04;;;;;;;0.43;0.43;;;;;;;10.03;100.00;97892.69;5034677;28;20231;-78
2023/11/19 05:50:30;;;;;;;0.57;0.30;;;;;;;10.01;100.00;97878.72;5035145;28;20254;-78
2023/11/19 05:52:57;;;;;;;0.30;0.30;;;;;;;10.05;100.00;97888.16;5034862;28;20232;-78
2023/11/19 05:55:24;;;;;;;0.30;0.30;;;;;;;10.05;100.00;97890.81;5034823;28;20220;-78
2023/11/19 05:57:51;;;;;;;1.17;0.40;;;;;;;10.07;100.00;97873.06;5035525;28;20310;-78
2023/11/19 06:00:18;;;;;;;0.37;0.37;;;;;;;10.07;100.00;97873.06;5035076;28;20211;-78
2023/11/19 06:02:45;;;;;;;0.40;0.40;;;;;;;10.04;100.00;97876.75;5035204;28;20236;-78
2023/11/19 06:05:11;;;;;;;0.33;0.30;;;;;;;10.09;100.00;97876.44;5034624;28;20227;-78
2023/11/19 06:07:39;;;;;;;0.37;0.37;;;;;;;10.10;100.00;97888.69;5034966;28;20232;-78
2023/11/19 06:10:06;;;;;;;0.40;0.40;;;;;;;10.08;100.00;97894.06;5034611;28;20214;-78
2023/11/19 06:12:37;;;;;;;1.63;0.50;;;;;;;10.10;100.00;97899.25;5033836;28;20264;-78
2023/11/19 06:15:05;;;;;;;0.40;0.40;;;;;;;10.05;100.00;97904.00;5034706;28;20579;-78
2023/11/19 06:17:31;;;;;;;0.50;0.50;;;;;;;10.07;100.00;97910.88;5034994;28;20207;-77
2023/11/19 06:19:58;;;;;;;0.30;0.30;;;;;;;10.08;100.00;97906.41;5034581;28;20207;-77
2023/11/19 06:22:24;;;;;;;0.47;0.47;;;;;;;10.07;100.00;97910.88;5034989;28;20600;-78
2023/11/19 06:24:51;;;;;;;0.30;0.30;;;;;;;10.08;100.00;97916.97;5035340;28;20218;-78
2023/11/19 06:27:17;;;;;;;0.30;0.30;;;;;;;10.08;100.00;97907.28;5034958;28;20242;-78
2023/11/19 06:29:45;;;;;;;0.47;0.47;;;;;;;10.12;100.00;97902.63;5034959;28;20217;-78
2023/11/19 06:32:11;;;;;;;0.50;0.50;;;;;;;10.12;100.00;97913.19;5034631;28;20607;-78
2023/11/19 06:34:38;;;;;;;0.40;0.27;;;;;;;10.17;100.00;97905.78;5034213;28;20321;-78
2023/11/19 06:37:05;;;;;;;0.40;0.40;;;;;;;10.18;100.00;97899.53;5034477;28;20584;-78
2023/11/19 06:39:31;;;;;;;0.30;0.30;;;;;;;10.20;100.00;97897.63;5034329;28;20242;-78
2023/11/19 06:41:58;;;;;;;0.60;0.40;;;;;;;10.25;100.00;97903.44;5034270;28;20779;-78
2023/11/19 06:44:25;;;;;;;0.63;0.37;;;;;;;10.28;100.00;97913.78;5034647;28;20216;-78
2023/11/19 06:46:53;;;;;;;0.60;0.50;;;;;;;10.39;100.00;97913.88;5036043;28;20212;-78
2023/11/19 06:49:20;;;;;;;0.40;0.40;;;;;;;10.36;100.00;97907.00;5035299;28;20269;-78
2023/11/19 06:51:46;;;;;;;0.60;0.60;;;;;;;10.38;100.00;97914.81;5035560;28;20239;-78
2023/11/19 06:54:13;;;;;;;0.40;0.40;;;;;;;10.37;100.00;97913.13;5034650;28;20206;-78
2023/11/19 06:56:39;;;;;;;0.47;0.47;;;;;;;10.42;100.00;97919.78;5035347;28;20683;-78
2023/11/19 06:59:05;;;;;;;0.67;0.50;;;;;;;10.42;100.00;97914.50;5035097;28;20210;-78
2023/11/19 07:01:35;;;;;;;0.70;0.50;;;;;;;10.47;100.00;97919.44;5035497;28;20229;-79
2023/11/19 07:04:08;;;;;;;0.30;0.30;;;;;;;10.47;100.00;97914.16;5034126;28;20684;-78
2023/11/19 07:06:34;;;;;;;0.33;0.33;;;;;;;10.51;100.00;97910.34;5034981;28;20212;-78
2023/11/19 07:09:06;;;;;;;0.90;0.60;;;;;;;10.51;100.00;97910.34;5034586;28;20726;-78
2023/11/19 07:11:32;;;;;;;0.50;0.50;;;;;;;10.51;100.00;97920.91;5034777;28;20227;-78
2023/11/19 07:14:00;;;;;;;0.50;0.50;;;;;;;10.51;100.00;97910.34;5034709;28;20205;-78
2023/11/19 07:16:27;;;;;;;0.57;0.50;;;;;;;10.55;100.00;97914.44;5034835;28;20214;-78
2023/11/19 07:18:53;;;;;;;0.70;0.50;;;;;;;10.59;100.00;97923.84;5035562;28;20206;-78
2023/11/19 07:21:21;;;;;;;0.47;0.47;;;;;;;10.59;100.00;97931.78;5034640;28;20586;-78
2023/11/19 07:23:49;;;;;;;0.80;0.40;;;;;;;10.60;100.00;97936.09;5034381;28;20248;-78
2023/11/19 07:26:15;;;;;;;0.40;0.40;;;;;;;10.57;100.00;97942.44;5034831;28;20562;-78
2023/11/19 07:28:44;;;;;;;1.07;0.30;;;;;;;10.62;100.00;97950.88;5035075;28;20226;-78
2023/11/19 07:31:11;;;;;;;0.43;0.40;;;;;;;10.63;100.00;97941.16;5034638;28;20230;-78
2023/11/19 07:33:38;;;;;;;0.60;0.60;;;;;;;10.62;100.00;97950.88;5033977;28;20212;-78
2023/11/19 07:36:05;;;;;;;0.53;0.50;;;;;;;10.66;100.00;97951.50;5032798;28;20326;-78
2023/11/19 07:38:33;;;;;;;0.83;0.47;;;;;;;10.65;100.00;97955.13;5032958;28;20213;-78
2023/11/19 07:40:59;;;;;;;0.40;0.40;;;;;;;10.64;100.00;97958.72;5033534;28;20228;-78
2023/11/19 07:43:27;;;;;;;0.30;0.30;;;;;;;10.64;100.00;97954.25;5033073;28;20227;-78
2023/11/19 07:45:53;;;;;;;0.40;0.40;;;;;;;10.68;100.00;97957.53;5036929;28;20205;-78
2023/11/19 07:48:23;;;;;;;0.50;0.50;;;;;;;10.69;100.00;97961.84;5037493;28;20706;-78
2023/11/19 07:50:50;;;;;;;0.50;0.50;;;;;;;10.72;100.00;97961.63;5036803;28;20252;-78
2023/11/19 07:53:16;;;;;;;0.47;0.47;;;;;;;10.76;100.00;97957.84;5036753;28;20208;-78
2023/11/19 07:55:44;;;;;;;0.73;0.50;;;;;;;10.75;100.00;97962.25;5037272;28;20306;-78
2023/11/19 07:58:12;;;;;;;1.33;0.50;;;;;;;10.77;100.00;97964.81;5037767;28;20214;-78
2023/11/19 08:00:40;;;;;;;0.50;0.50;;;;;;;10.82;100.00;97965.31;5039190;28;20220;-78
2023/11/19 08:03:06;;;;;;;0.60;0.50;;;;;;;10.85;100.00;97973.00;5039275;28;20704;-77
2023/11/19 08:05:33;;;;;;;0.50;0.50;;;;;;;10.87;100.00;97965.78;5036024;28;20209;-78
2023/11/19 08:07:59;;;;;;;1.40;0.50;;;;;;;10.89;100.00;97963.91;5035811;28;20231;-77
2023/11/19 08:10:26;;;;;;;0.60;0.60;;;;;;;10.90;100.00;97976.16;5035555;28;20210;-76
2023/11/19 08:12:54;;;;;;;0.70;0.70;;;;;;;10.94;100.00;97980.28;5037519;28;20746;-78
2023/11/19 08:15:21;;;;;;;0.60;0.60;;;;;;;10.98;100.00;97965.88;5037320;28;20222;-78
2023/11/19 08:17:47;;;;;;;0.50;0.50;;;;;;;11.01;100.00;97952.44;5037092;28;20210;-78
2023/11/19 08:20:13;;;;;;;0.50;0.50;;;;;;;11.03;100.00;97966.38;5038097;28;20227;-78
2023/11/19 08:22:40;;;;;;;0.40;0.40;;;;;;;11.07;100.00;97967.84;5037150;28;20755;-78
2023/11/19 08:25:07;;;;;;;0.40;0.40;;;;;;;11.04;100.00;97960.13;5036567;28;20231;-78
2023/11/19 08:27:33;;;;;;;0.87;0.50;;;;;;;11.12;100.00;97965.72;5036141;28;20567;-78
2023/11/19 08:30:01;;;;;;;0.40;0.40;;;;;;;11.27;100.00;97964.56;5036575;28;20235;-78
2023/11/19 08:32:28;;;;;;;1.70;0.50;;;;;;;11.38;100.00;97959.31;5036289;28;20251;-78
2023/11/19 08:34:55;;;;;;;0.50;0.40;;;;;;;11.41;100.00;97972.31;5035888;28;20205;-78
2023/11/19 08:37:22;;;;;;;0.40;0.40;;;;;;;11.41;100.00;97978.44;5035546;28;20281;-77
2023/11/19 08:39:49;;;;;;;0.50;0.50;;;;;;;11.41;100.00;97977.59;5035809;28;20205;-79
2023/11/19 08:42:16;;;;;;;0.47;0.47;;;;;;;11.39;100.00;97985.66;5035204;28;20244;-79
2023/11/19 08:44:43;;;;;;;0.50;0.50;;;;;;;11.40;100.00;97991.78;5035554;28;20276;-79
2023/11/19 08:47:12;;;;;;;0.80;0.60;;;;;;;11.42;100.00;97984.56;5035894;28;20223;-79
2023/11/19 08:49:38;;;;;;;0.50;0.50;;;;;;;11.43;100.00;97981.00;5033970;28;20235;-78
2023/11/19 08:52:07;;;;;;;0.80;0.70;;;;;;;11.47;100.00;97966.56;5033792;28;20771;-78
2023/11/19 08:54:33;;;;;;;0.60;0.60;;;;;;;11.57;100.00;97978.13;5034202;28;20589;-77
2023/11/19 08:57:00;;;;;;;0.77;0.53;;;;;;;11.58;100.00;97974.53;5034632;28;20250;-79
2023/11/19 08:59:27;;;;;;;0.50;0.50;;;;;;;11.54;100.00;97976.56;5034674;28;20205;-78
2023/11/19 09:01:53;;;;;;;0.60;0.60;;;;;;;11.61;100.00;97979.66;5035152;28;20225;-78
2023/11/19 09:04:22;;;;;;;1.60;0.53;;;;;;;11.66;100.00;97983.63;5035192;28;20212;-78
2023/11/19 09:06:49;;;;;;;1.67;0.80;;;;;;;11.71;100.00;97988.56;5035066;28;20216;-78
2023/11/19 09:09:15;;;;;;;0.67;0.67;;;;;;;11.73;100.00;97984.84;5034805;28;20654;-78
2023/11/19 09:11:42;;;;;;;0.60;0.60;;;;;;;11.79;100.00;97984.38;5035480;28;20229;-78
2023/11/19 09:14:08;;;;;;;0.80;0.80;;;;;;;11.94;100.00;98001.75;5034868;28;20209;-78
2023/11/19 09:16:35;;;;;;;0.90;0.70;;;;;;;11.97;100.00;97998.00;5034429;28;20642;-77
2023/11/19 09:19:02;;;;;;;0.90;0.90;;;;;;;12.04;100.00;98004.53;5034433;28;20225;-78
2023/11/19 09:21:30;;;;;;;1.23;0.70;;;;;;;12.07;100.00;97998.97;5034837;28;20685;-78
2023/11/19 09:23:57;;;;;;;1.53;0.70;;;;;;;12.14;100.00;98005.50;5034081;28;20215;-78
2023/11/19 09:26:24;;;;;;;1.70;0.60;;;;;;;12.15;100.00;98017.78;5051229;28;20211;-78
2023/11/19 09:28:50;;;;;;;2.50;0.67;;;;;;;12.18;100.00;98025.50;5051928;28;20258;-78
2023/11/19 09:31:18;;;;;;;0.40;0.40;;;;;;;12.14;100.00;98034.63;5035132;28;20670;-78
2023/11/19 09:33:45;;;;;;;1.70;0.67;;;;;;;12.25;100.00;98024.06;5034709;28;20214;-78
2023/11/19 09:36:13;;;;;;;0.73;0.53;;;;;;;12.22;100.00;98038.38;5034776;28;20218;-78
2023/11/19 09:38:41;;;;;;;1.57;0.60;;;;;;;12.18;100.00;98033.44;5034469;28;20214;-78
2023/11/19 09:41:08;;;;;;;1.07;0.87;;;;;;;12.14;100.00;98031.97;5034013;28;20248;-78
2023/11/19 09:43:36;;;;;;;1.70;0.60;;;;;;;12.13;100.00;98035.59;5034687;28;20212;-78
2023/11/19 09:46:06;;;;;;;1.03;0.90;;;;;;;12.18;100.00;98033.44;5034829;28;20210;-78
2023/11/19 09:48:34;;;;;;;1.00;0.67;;;;;;;12.22;100.00;98040.22;5034535;28;20758;-78
2023/11/19 09:51:02;;;;;;;1.43;0.80;;;;;;;12.32;100.00;98042.03;5034044;28;20257;-78
2023/11/19 09:53:28;;;;;;;1.23;0.70;;;;;;;12.38;100.00;98041.53;5033242;28;20204;-78
2023/11/19 09:55:57;;;;;;;0.50;0.50;;;;;;;12.41;100.00;98048.41;5033631;28;20573;-78
2023/11/19 09:58:23;;;;;;;0.80;0.60;;;;;;;12.40;100.00;98038.78;5034405;28;20211;-78
2023/11/19 10:00:51;;;;;;;0.60;0.60;;;;;;;12.51;100.00;98046.72;5034784;28;20208;-78
2023/11/19 10:03:18;;;;;;;1.03;0.60;;;;;;;12.59;100.00;98041.69;5035136;28;20209;-78
2023/11/19 10:05:45;;;;;;;1.23;0.70;;;;;;;12.50;100.00;98034.44;5035154;28;20670;-78
2023/11/19 10:08:11;;;;;;;1.03;0.63;;;;;;;12.54;100.00;98034.06;5033572;28;20573;-79
2023/11/19 10:10:38;;;;;;;2.40;0.70;;;;;;;12.63;100.00;98030.69;5034835;28;20220;-78
2023/11/19 10:13:06;;;;;;;1.47;0.67;;;;;;;12.69;100.00;98024.91;5033534;28;20209;-78
2023/11/19 10:15:37;;;;;;;1.00;0.70;;;;;;;12.73;100.00;98036.13;5033574;28;20632;-78
2023/11/19 10:18:04;;;;;;;0.70;0.60;;;;;;;12.75;100.00;98034.19;5032929;28;20207;-78
2023/11/19 10:20:36;;;;;;;0.63;0.63;;;;;;;12.78;100.00;98040.09;5033273;28;20730;-78
2023/11/19 10:23:03;;;;;;;0.60;0.60;;;;;;;12.84;100.00;98029.00;5032651;28;20228;-77
2023/11/19 10:25:30;;;;;;;0.80;0.70;;;;;;;12.92;100.00;98031.03;5032364;28;20213;-79
2023/11/19 10:27:57;;;;;;;1.27;0.70;;;;;;;13.06;100.00;98028.13;5032848;28;20223;-79
2023/11/19 10:30:27;;;;;;;1.33;0.90;;;;;;;13.17;100.00;98033.44;5033560;28;20224;-79
2023/11/19 10:33:07;;;;;;;1.53;1.43;;;;;;;13.28;100.00;98028.94;5033251;28;20224;-79
2023/11/19 10:35:34;;;;;;;1.23;1.03;;;;;;;13.44;100.00;98033.84;5045155;28;20530;-79
2023/11/19 10:38:02;;;;;;;0.87;0.63;;;;;;;13.48;100.00;98032.59;5053570;28;20211;-79
2023/11/19 10:40:41;;;;;;;1.93;0.70;;;;;;;13.47;100.00;98017.66;5053746;28;20595;-79
2023/11/19 10:43:08;;;;;;;0.63;0.60;;;;;;;13.39;100.00;98009.47;5053928;28;20303;-79
2023/11/19 10:45:37;;;;;;;0.90;0.60;;;;;;;13.28;100.00;98021.00;5053349;28;20720;-78
2023/11/19 10:48:06;;;;;;;1.30;0.63;;;;;;;13.25;100.00;98025.69;5054460;28;20696;-79
2023/11/19 10:50:33;;;;;;;1.33;0.57;;;;;;;13.30;100.00;98013.72;5053842;28;20207;-79
2023/11/19 10:53:00;;;;;;;1.17;0.67;;;;;;;13.29;100.00;98013.84;5053172;28;20236;-78
2023/11/19 10:55:30;;;;;;;0.97;0.60;;;;;;;13.32;100.00;98014.44;5052543;28;20214;-78
2023/11/19 10:58:00;;;;;;;2.30;0.70;;;;;;;13.37;100.00;98012.25;5052905;28;20207;-79
2023/11/19 11:00:29;;;;;;;0.60;0.60;;;;;;;13.43;100.00;98010.91;5052465;28;20628;-78
2023/11/19 11:03:01;;;;;;;0.53;0.40;;;;;;;13.45;100.00;98006.31;5054163;28;20234;-79
2023/11/19 11:05:28;;;;;;;0.70;0.50;;;;;;;13.47;100.00;98001.72;5054804;28;20223;-78
2023/11/19 11:07:57;;;;;;;1.63;0.63;;;;;;;13.57;100.00;98005.31;5054601;28;20223;-78
2023/11/19 11:10:26;;;;;;;2.90;0.53;;;;;;;13.68;100.00;97994.66;5053085;28;20264;-79
2023/11/19 11:12:58;;;;;;;2.10;0.53;;;;;;;13.79;100.00;97991.91;5053944;28;20234;-79
2023/11/19 11:15:28;;;;;;;2.00;0.60;;;;;;;13.77;100.00;98001.81;5054416;28;20211;-79
2023/11/19 11:18:01;;;;;;;0.90;0.40;;;;;;;13.64;100.00;97983.41;5053906;28;20208;-78
2023/11/19 11:20:28;;;;;;;1.17;0.60;;;;;;;13.68;100.00;97986.69;5052937;28;20208;-78
2023/11/19 11:23:12;;;;;;;1.10;0.60;;;;;;;13.69;100.00;97978.56;5055197;28;20485;-78
2023/11/19 11:25:50;;;;;;;1.17;0.73;;;;;;;13.72;100.00;97991.59;5053037;28;20207;-78
2023/11/19 11:28:29;;;;;;;1.73;0.70;;;;;;;13.73;100.00;97976.47;5053852;28;20208;-78
2023/11/19 11:31:26;;;;;;;1.77;0.70;;;;;;;13.73;100.00;97979.13;5053186;28;20232;-78